Terminal Aerodrome Forecast
Issued by NWS

Home | Current Version | Previous Version | Text Only | Print | Product List | Glossary On
Versions: 1 2 3 4 5 6 7 8 9 10 11 12 13 14 15 16 17 18 19 20 21 22 23 24 25 26 27 28 29
000
FTAK31 PANC 111140
TAFACD
TAF
PACD 111140Z 1112/1212 14008KT P6SM FEW012 SCT022 BKN035
      TEMPO 1112/1116 BKN022 OVC035
     FM111600 14005KT 6SM BR VCSH SCT007 BKN012 OVC022=

USA.gov is the U.S. government's official web portal to all federal, state and local government web resources and services.